sensor_id;sensor_type;location;lat;lon;timestamp;pressure;altitude;pressure_sealevel;temperature;humidity
4012;BME280;2020;48.682;9.024;2023-03-16T00:00:38;96757.84;;;-0.55;93.63
4012;BME280;2020;48.682;9.024;2023-03-16T00:03:07;96755.38;;;-0.56;92.98
4012;BME280;2020;48.682;9.024;2023-03-16T00:05:32;96749.34;;;-0.55;93.02
4012;BME280;2020;48.682;9.024;2023-03-16T00:07:57;96747.53;;;-0.53;92.60
4012;BME280;2020;48.682;9.024;2023-03-16T00:10:23;96746.78;;;-0.55;93.36
4012;BME280;2020;48.682;9.024;2023-03-16T00:12:54;96753.19;;;-0.64;92.60
4012;BME280;2020;48.682;9.024;2023-03-16T00:15:20;96750.56;;;-0.63;92.73
4012;BME280;2020;48.682;9.024;2023-03-16T00:17:46;96752.38;;;-0.65;92.86
4012;BME280;2020;48.682;9.024;2023-03-16T00:20:13;96748.91;;;-0.64;92.53
4012;BME280;2020;48.682;9.024;2023-03-16T00:22:39;96745.63;;;-0.66;92.59
4012;BME280;2020;48.682;9.024;2023-03-16T00:25:06;96743.19;;;-0.69;92.73
4012;BME280;2020;48.682;9.024;2023-03-16T00:27:32;96737.47;;;-0.74;92.99
4012;BME280;2020;48.682;9.024;2023-03-16T00:29:57;96746.06;;;-0.75;92.68
4012;BME280;2020;48.682;9.024;2023-03-16T00:32:25;96748.41;;;-0.70;92.65
4012;BME280;2020;48.682;9.024;2023-03-16T00:34:51;96756.28;;;-0.75;92.66
4012;BME280;2020;48.682;9.024;2023-03-16T00:37:18;96749.69;;;-0.79;93.39
4012;BME280;2020;48.682;9.024;2023-03-16T00:39:45;96752.97;;;-0.77;93.15
4012;BME280;2020;48.682;9.024;2023-03-16T00:42:12;96746.22;;;-0.78;92.49
4012;BME280;2020;48.682;9.024;2023-03-16T00:44:38;96756.75;;;-0.84;92.57
4012;BME280;2020;48.682;9.024;2023-03-16T00:47:05;96751.63;;;-0.84;93.26
4012;BME280;2020;48.682;9.024;2023-03-16T00:49:32;96754.94;;;-0.82;92.95
4012;BME280;2020;48.682;9.024;2023-03-16T00:52:01;96745.03;;;-0.89;92.79
4012;BME280;2020;48.682;9.024;2023-03-16T00:54:28;96750.44;;;-0.95;92.82
4012;BME280;2020;48.682;9.024;2023-03-16T00:56:54;96750.28;;;-0.92;92.60
4012;BME280;2020;48.682;9.024;2023-03-16T00:59:19;96747.00;;;-0.94;92.97
4012;BME280;2020;48.682;9.024;2023-03-16T01:01:45;96748.19;;;-1.01;93.16
4012;BME280;2020;48.682;9.024;2023-03-16T01:04:11;96740.69;;;-1.04;92.82
4012;BME280;2020;48.682;9.024;2023-03-16T01:06:38;96745.94;;;-1.07;93.25
4012;BME280;2020;48.682;9.024;2023-03-16T01:09:03;96741.16;;;-1.13;92.64
4012;BME280;2020;48.682;9.024;2023-03-16T01:11:29;96739.81;;;-1.21;92.19
4012;BME280;2020;48.682;9.024;2023-03-16T01:13:58;96741.75;;;-1.26;92.18
4012;BME280;2020;48.682;9.024;2023-03-16T01:16:23;96729.88;;;-1.27;93.60
4012;BME280;2020;48.682;9.024;2023-03-16T01:18:49;96731.53;;;-1.26;93.46
4012;BME280;2020;48.682;9.024;2023-03-16T01:21:16;96732.53;;;-1.28;93.33
4012;BME280;2020;48.682;9.024;2023-03-16T01:23:41;96735.53;;;-1.20;93.05
4012;BME280;2020;48.682;9.024;2023-03-16T01:26:08;96741.59;;;-1.23;92.42
4012;BME280;2020;48.682;9.024;2023-03-16T01:28:34;96743.94;;;-1.18;92.87
4012;BME280;2020;48.682;9.024;2023-03-16T01:31:10;96741.59;;;-1.23;93.01
4012;BME280;2020;48.682;9.024;2023-03-16T01:33:37;96746.56;;;-1.20;92.77
4012;BME280;2020;48.682;9.024;2023-03-16T01:36:07;96738.16;;;-1.22;92.76
4012;BME280;2020;48.682;9.024;2023-03-16T01:38:33;96734.84;;;-1.24;92.37
4012;BME280;2020;48.682;9.024;2023-03-16T01:40:59;96729.44;;;-1.18;92.79
4012;BME280;2020;48.682;9.024;2023-03-16T01:43:27;96731.69;;;-1.29;94.03
4012;BME280;2020;48.682;9.024;2023-03-16T01:48:37;96738.44;;;-1.28;93.71
4012;BME280;2020;48.682;9.024;2023-03-16T01:51:06;96729.88;;;-1.27;93.91
4012;BME280;2020;48.682;9.024;2023-03-16T01:53:33;96729.72;;;-1.24;94.33
4012;BME280;2020;48.682;9.024;2023-03-16T01:56:02;96724.31;;;-1.18;94.76
4012;BME280;2020;48.682;9.024;2023-03-16T01:58:30;96718.78;;;-1.26;95.12
4012;BME280;2020;48.682;9.024;2023-03-16T02:00:56;96713.75;;;-1.27;94.22
4012;BME280;2020;48.682;9.024;2023-03-16T02:03:24;96716.06;;;-1.23;93.88
4012;BME280;2020;48.682;9.024;2023-03-16T02:05:55;96722.22;;;-1.27;94.33
4012;BME280;2020;48.682;9.024;2023-03-16T02:08:23;96718.16;;;-1.31;94.88
4012;BME280;2020;48.682;9.024;2023-03-16T02:10:49;96714.25;;;-1.21;94.67
4012;BME280;2020;48.682;9.024;2023-03-16T02:13:20;96708.78;;;-1.30;94.28
4012;BME280;2020;48.682;9.024;2023-03-16T02:15:45;96702.53;;;-1.25;94.78
4012;BME280;2020;48.682;9.024;2023-03-16T02:18:11;96696.78;;;-1.28;93.97
4012;BME280;2020;48.682;9.024;2023-03-16T02:20:45;96694.13;;;-1.27;94.10
4012;BME280;2020;48.682;9.024;2023-03-16T02:23:15;96700.88;;;-1.26;94.58
4012;BME280;2020;48.682;9.024;2023-03-16T02:26:00;96694.13;;;-1.27;94.20
4012;BME280;2020;48.682;9.024;2023-03-16T02:29:04;96690.81;;;-1.29;95.18
4012;BME280;2020;48.682;9.024;2023-03-16T02:31:34;96690.06;;;-1.31;94.51
4012;BME280;2020;48.682;9.024;2023-03-16T02:37:21;96704.66;;;-1.33;94.68
4012;BME280;2020;48.682;9.024;2023-03-16T02:39:46;96703.69;;;-1.30;93.83
4012;BME280;2020;48.682;9.024;2023-03-16T02:42:14;96712.38;;;-1.35;94.23
4012;BME280;2020;48.682;9.024;2023-03-16T02:44:45;96710.81;;;-1.37;94.04
4012;BME280;2020;48.682;9.024;2023-03-16T02:47:38;96704.81;;;-1.36;94.09
4012;BME280;2020;48.682;9.024;2023-03-16T02:50:06;96698.94;;;-1.38;94.60
4012;BME280;2020;48.682;9.024;2023-03-16T02:52:33;96699.47;;;-1.49;94.04
4012;BME280;2020;48.682;9.024;2023-03-16T02:54:59;96700.75;;;-1.58;93.52
4012;BME280;2020;48.682;9.024;2023-03-16T02:57:24;96699.25;;;-1.62;93.05
4012;BME280;2020;48.682;9.024;2023-03-16T02:59:49;96700.06;;;-1.62;93.60
4012;BME280;2020;48.682;9.024;2023-03-16T03:02:16;96685.44;;;-1.58;94.40
4012;BME280;2020;48.682;9.024;2023-03-16T03:04:41;96683.03;;;-1.61;93.93
4012;BME280;2020;48.682;9.024;2023-03-16T03:07:10;96677.16;;;-1.63;93.87
4012;BME280;2020;48.682;9.024;2023-03-16T03:09:36;96679.78;;;-1.65;93.86
4012;BME280;2020;48.682;9.024;2023-03-16T03:12:01;96684.22;;;-1.68;94.42
4012;BME280;2020;48.682;9.024;2023-03-16T03:14:26;96684.06;;;-1.65;94.64
4012;BME280;2020;48.682;9.024;2023-03-16T03:16:53;96675.53;;;-1.64;94.53
4012;BME280;2020;48.682;9.024;2023-03-16T03:19:18;96670.84;;;-1.73;94.61
4012;BME280;2020;48.682;9.024;2023-03-16T03:21:43;96681.50;;;-1.83;93.79
4012;BME280;2020;48.682;9.024;2023-03-16T03:24:09;96674.75;;;-1.84;94.67
4012;BME280;2020;48.682;9.024;2023-03-16T03:26:34;96677.91;;;-1.79;94.64
4012;BME280;2020;48.682;9.024;2023-03-16T03:28:59;96678.56;;;-1.75;94.04
4012;BME280;2020;48.682;9.024;2023-03-16T03:31:25;96678.56;;;-1.75;95.21
4012;BME280;2020;48.682;9.024;2023-03-16T03:33:50;96674.31;;;-1.74;94.58
4012;BME280;2020;48.682;9.024;2023-03-16T03:36:17;96663.78;;;-1.86;94.48
4012;BME280;2020;48.682;9.024;2023-03-16T03:38:42;96656.28;;;-1.89;94.33
4012;BME280;2020;48.682;9.024;2023-03-16T03:41:08;96651.53;;;-1.97;93.92
4012;BME280;2020;48.682;9.024;2023-03-16T03:43:34;96655.94;;;-2.00;94.60
4012;BME280;2020;48.682;9.024;2023-03-16T03:46:00;96658.50;;;-2.00;94.65
4012;BME280;2020;48.682;9.024;2023-03-16T03:48:26;96658.38;;;-1.97;95.18
4012;BME280;2020;48.682;9.024;2023-03-16T03:50:52;96658.25;;;-1.94;94.28
4012;BME280;2020;48.682;9.024;2023-03-16T03:53:18;96660.03;;;-1.96;94.37
4012;BME280;2020;48.682;9.024;2023-03-16T03:55:43;96652.44;;;-1.98;93.54
4012;BME280;2020;48.682;9.024;2023-03-16T03:58:09;96653.41;;;-2.00;94.67
4012;BME280;2020;48.682;9.024;2023-03-16T04:00:34;96655.03;;;-1.99;93.79
4012;BME280;2020;48.682;9.024;2023-03-16T04:02:59;96653.84;;;-2.10;92.68
4012;BME280;2020;48.682;9.024;2023-03-16T04:05:25;96650.53;;;-2.12;93.19
4012;BME280;2020;48.682;9.024;2023-03-16T04:07:53;96649.78;;;-2.14;93.59
4012;BME280;2020;48.682;9.024;2023-03-16T04:10:23;96658.13;;;-2.10;93.35
4012;BME280;2020;48.682;9.024;2023-03-16T04:12:49;96652.19;;;-2.11;93.28
4012;BME280;2020;48.682;9.024;2023-03-16T04:15:14;96665.16;;;-2.15;93.37
4012;BME280;2020;48.682;9.024;2023-03-16T04:17:39;96659.22;;;-2.16;93.01
4012;BME280;2020;48.682;9.024;2023-03-16T04:20:05;96651.28;;;-2.10;92.35
4012;BME280;2020;48.682;9.024;2023-03-16T04:22:36;96649.88;;;-2.15;93.06
4012;BME280;2020;48.682;9.024;2023-03-16T04:25:02;96649.91;;;-2.17;93.04
4012;BME280;2020;48.682;9.024;2023-03-16T04:27:29;96639.09;;;-2.22;93.25
4012;BME280;2020;48.682;9.024;2023-03-16T04:30:00;96638.97;;;-2.19;92.95
4012;BME280;2020;48.682;9.024;2023-03-16T04:32:26;96640.75;;;-2.21;93.46
4012;BME280;2020;48.682;9.024;2023-03-16T04:34:51;96631.41;;;-2.21;93.61
4012;BME280;2020;48.682;9.024;2023-03-16T04:37:19;96632.22;;;-2.20;93.46
4012;BME280;2020;48.682;9.024;2023-03-16T04:39:46;96636.34;;;-2.17;93.67
4012;BME280;2020;48.682;9.024;2023-03-16T04:42:11;96637.16;;;-2.17;94.16
4012;BME280;2020;48.682;9.024;2023-03-16T04:44:37;96640.63;;;-2.18;93.40
4012;BME280;2020;48.682;9.024;2023-03-16T04:47:11;96642.56;;;-2.23;92.93
4012;BME280;2020;48.682;9.024;2023-03-16T04:49:37;96635.81;;;-2.24;93.21
4012;BME280;2020;48.682;9.024;2023-03-16T04:52:02;96624.09;;;-2.28;93.65
4012;BME280;2020;48.682;9.024;2023-03-16T04:54:28;96632.94;;;-2.36;93.59
4012;BME280;2020;48.682;9.024;2023-03-16T04:56:54;96627.97;;;-2.39;93.59
4012;BME280;2020;48.682;9.024;2023-03-16T04:59:19;96629.78;;;-2.41;93.00
4012;BME280;2020;48.682;9.024;2023-03-16T05:01:44;96630.47;;;-2.37;92.90
4012;BME280;2020;48.682;9.024;2023-03-16T05:04:10;96635.00;;;-2.44;93.53
4012;BME280;2020;48.682;9.024;2023-03-16T05:06:36;96636.66;;;-2.43;93.30
4012;BME280;2020;48.682;9.024;2023-03-16T05:09:02;96625.78;;;-2.46;93.12
4012;BME280;2020;48.682;9.024;2023-03-16T05:11:29;96629.91;;;-2.44;93.13
4012;BME280;2020;48.682;9.024;2023-03-16T05:13:54;96638.47;;;-2.45;93.09
4012;BME280;2020;48.682;9.024;2023-03-16T05:16:20;96625.09;;;-2.50;92.47
4012;BME280;2020;48.682;9.024;2023-03-16T05:18:45;96633.78;;;-2.54;93.05
4012;BME280;2020;48.682;9.024;2023-03-16T05:21:10;96629.66;;;-2.57;93.35
4012;BME280;2020;48.682;9.024;2023-03-16T05:23:36;96633.91;;;-2.57;93.51
4012;BME280;2020;48.682;9.024;2023-03-16T05:26:02;96632.28;;;-2.58;93.02
4012;BME280;2020;48.682;9.024;2023-03-16T05:28:27;96632.56;;;-2.65;93.00
4012;BME280;2020;48.682;9.024;2023-03-16T05:30:52;96639.16;;;-2.60;93.49
4012;BME280;2020;48.682;9.024;2023-03-16T05:33:18;96635.84;;;-2.62;93.07
4012;BME280;2020;48.682;9.024;2023-03-16T05:35:43;96629.94;;;-2.63;92.66
4012;BME280;2020;48.682;9.024;2023-03-16T05:38:08;96630.00;;;-2.65;92.16
4012;BME280;2020;48.682;9.024;2023-03-16T05:40:34;96622.50;;;-2.68;92.33
4012;BME280;2020;48.682;9.024;2023-03-16T05:43:01;96630.34;;;-2.72;92.60
4012;BME280;2020;48.682;9.024;2023-03-16T05:45:28;96632.06;;;-2.73;93.34
4012;BME280;2020;48.682;9.024;2023-03-16T05:47:54;96620.84;;;-2.69;92.47
4012;BME280;2020;48.682;9.024;2023-03-16T05:50:19;96630.75;;;-2.62;92.69
4012;BME280;2020;48.682;9.024;2023-03-16T05:52:45;96630.06;;;-2.66;92.87
4012;BME280;2020;48.682;9.024;2023-03-16T05:55:15;96623.31;;;-2.67;93.77
4012;BME280;2020;48.682;9.024;2023-03-16T05:57:41;96622.06;;;-2.58;93.22
4012;BME280;2020;48.682;9.024;2023-03-16T06:00:09;96621.78;;;-2.52;92.82
4012;BME280;2020;48.682;9.024;2023-03-16T06:02:38;96617.69;;;-2.55;92.04
4012;BME280;2020;48.682;9.024;2023-03-16T06:05:04;96611.31;;;-2.46;92.54
4012;BME280;2020;48.682;9.024;2023-03-16T06:07:29;96611.06;;;-2.22;91.18
4012;BME280;2020;48.682;9.024;2023-03-16T06:12:35;96610.66;;;-1.95;89.28
4012;BME280;2020;48.682;9.024;2023-03-16T06:15:01;96614.53;;;-1.53;87.90
4012;BME280;2020;48.682;9.024;2023-03-16T06:17:26;96615.75;;;-0.93;85.83
4012;BME280;2020;48.682;9.024;2023-03-16T06:19:51;96612.19;;;-0.56;83.74
4012;BME280;2020;48.682;9.024;2023-03-16T06:22:17;96620.09;;;-0.45;84.00
4012;BME280;2020;48.682;9.024;2023-03-16T06:24:42;96621.53;;;-0.73;83.66
4012;BME280;2020;48.682;9.024;2023-03-16T06:27:08;96625.56;;;-1.01;84.84
4012;BME280;2020;48.682;9.024;2023-03-16T06:29:33;96624.63;;;-1.16;86.92
4012;BME280;2020;48.682;9.024;2023-03-16T06:31:58;96625.00;;;-1.24;87.74
4012;BME280;2020;48.682;9.024;2023-03-16T06:34:24;96626.63;;;-1.05;88.16
4012;BME280;2020;48.682;9.024;2023-03-16T06:36:49;96624.44;;;-0.79;87.03
4012;BME280;2020;48.682;9.024;2023-03-16T06:39:15;96625.53;;;-0.51;86.33
4012;BME280;2020;48.682;9.024;2023-03-16T06:41:40;96625.91;;;-0.11;85.07
4012;BME280;2020;48.682;9.024;2023-03-16T06:44:07;96620.16;;;0.16;83.96
4012;BME280;2020;48.682;9.024;2023-03-16T06:46:32;96616.31;;;0.23;84.21
4012;BME280;2020;48.682;9.024;2023-03-16T06:48:57;96619.66;;;0.40;81.87
4012;BME280;2020;48.682;9.024;2023-03-16T06:51:25;96621.69;;;0.49;83.55
4012;BME280;2020;48.682;9.024;2023-03-16T06:53:50;96620.97;;;0.62;81.91
4012;BME280;2020;48.682;9.024;2023-03-16T06:56:15;96625.22;;;0.77;82.94
4012;BME280;2020;48.682;9.024;2023-03-16T06:58:40;96619.81;;;0.67;83.03
4012;BME280;2020;48.682;9.024;2023-03-16T07:01:06;96627.59;;;0.95;81.96
4012;BME280;2020;48.682;9.024;2023-03-16T07:03:31;96627.06;;;1.04;81.13
4012;BME280;2020;48.682;9.024;2023-03-16T07:05:56;96624.28;;;1.22;83.17
4012;BME280;2020;48.682;9.024;2023-03-16T07:08:21;96634.19;;;1.28;83.48
4012;BME280;2020;48.682;9.024;2023-03-16T07:10:47;96633.41;;;1.40;83.16
4012;BME280;2020;48.682;9.024;2023-03-16T07:13:14;96635.25;;;1.38;83.99
4012;BME280;2020;48.682;9.024;2023-03-16T07:15:39;96632.84;;;1.50;83.83
4012;BME280;2020;48.682;9.024;2023-03-16T07:18:05;96630.44;;;1.61;82.93
4012;BME280;2020;48.682;9.024;2023-03-16T07:20:30;96635.53;;;1.75;84.49
4012;BME280;2020;48.682;9.024;2023-03-16T07:22:57;96629.69;;;1.73;83.49
4012;BME280;2020;48.682;9.024;2023-03-16T07:25:22;96636.94;;;1.94;83.75
4012;BME280;2020;48.682;9.024;2023-03-16T07:27:47;96631.44;;;2.00;84.27
4012;BME280;2020;48.682;9.024;2023-03-16T07:30:13;96635.25;;;2.08;84.02
4012;BME280;2020;48.682;9.024;2023-03-16T07:32:40;96636.38;;;2.03;83.66
4012;BME280;2020;48.682;9.024;2023-03-16T07:35:07;96632.91;;;2.04;84.20
4012;BME280;2020;48.682;9.024;2023-03-16T07:37:32;96638.25;;;2.14;85.62
4012;BME280;2020;48.682;9.024;2023-03-16T07:39:59;96637.69;;;2.37;86.30
4012;BME280;2020;48.682;9.024;2023-03-16T07:42:24;96644.47;;;2.38;82.60
4012;BME280;2020;48.682;9.024;2023-03-16T07:44:50;96642.88;;;2.62;84.11
4012;BME280;2020;48.682;9.024;2023-03-16T07:47:16;96644.09;;;2.70;83.36
4012;BME280;2020;48.682;9.024;2023-03-16T07:49:41;96640.69;;;2.56;81.19
4012;BME280;2020;48.682;9.024;2023-03-16T07:52:08;96640.19;;;2.77;84.87
4012;BME280;2020;48.682;9.024;2023-03-16T07:54:34;96640.00;;;2.80;85.23
4012;BME280;2020;48.682;9.024;2023-03-16T07:56:59;96640.59;;;2.97;83.73
4012;BME280;2020;48.682;9.024;2023-03-16T07:59:25;96639.69;;;2.98;82.25
4012;BME280;2020;48.682;9.024;2023-03-16T08:01:51;96639.56;;;2.86;81.92
4012;BME280;2020;48.682;9.024;2023-03-16T08:04:16;96645.13;;;3.06;81.94
4012;BME280;2020;48.682;9.024;2023-03-16T08:06:41;96639.16;;;3.18;81.76
4012;BME280;2020;48.682;9.024;2023-03-16T08:09:07;96638.53;;;3.15;81.55
4012;BME280;2020;48.682;9.024;2023-03-16T08:11:32;96643.66;;;3.28;82.50
4012;BME280;2020;48.682;9.024;2023-03-16T08:13:58;96640.59;;;2.97;80.42
4012;BME280;2020;48.682;9.024;2023-03-16T08:16:23;96650.06;;;3.35;84.05
4012;BME280;2020;48.682;9.024;2023-03-16T08:18:49;96645.84;;;3.34;80.37
4012;BME280;2020;48.682;9.024;2023-03-16T08:21:16;96650.91;;;3.60;84.32
4012;BME280;2020;48.682;9.024;2023-03-16T08:23:42;96638.81;;;3.73;83.63
4012;BME280;2020;48.682;9.024;2023-03-16T08:26:15;96636.91;;;3.64;80.77
4012;BME280;2020;48.682;9.024;2023-03-16T08:28:42;96640.41;;;3.63;80.44
4012;BME280;2020;48.682;9.024;2023-03-16T08:31:09;96639.59;;;3.87;82.28
4012;BME280;2020;48.682;9.024;2023-03-16T08:33:36;96635.22;;;4.00;84.15
4012;BME280;2020;48.682;9.024;2023-03-16T08:36:05;96621.94;;;4.18;83.03
4012;BME280;2020;48.682;9.024;2023-03-16T08:38:30;96619.84;;;4.23;82.27
4012;BME280;2020;48.682;9.024;2023-03-16T08:40:56;96616.41;;;4.58;87.69
4012;BME280;2020;48.682;9.024;2023-03-16T08:43:22;96614.72;;;4.81;86.72
4012;BME280;2020;48.682;9.024;2023-03-16T08:45:48;96605.97;;;4.37;78.31
4012;BME280;2020;48.682;9.024;2023-03-16T08:48:13;96605.84;;;4.50;82.13
4012;BME280;2020;48.682;9.024;2023-03-16T08:50:43;96601.66;;;4.60;80.70
4012;BME280;2020;48.682;9.024;2023-03-16T08:53:09;96600.53;;;4.76;77.63
4012;BME280;2020;48.682;9.024;2023-03-16T08:55:36;96602.88;;;4.67;77.88
4012;BME280;2020;48.682;9.024;2023-03-16T08:58:01;96604.53;;;4.91;84.33
4012;BME280;2020;48.682;9.024;2023-03-16T09:00:26;96608.53;;;5.07;79.42
4012;BME280;2020;48.682;9.024;2023-03-16T09:02:53;96606.88;;;5.29;80.11
4012;BME280;2020;48.682;9.024;2023-03-16T09:05:19;96601.13;;;5.02;74.03
4012;BME280;2020;48.682;9.024;2023-03-16T09:07:45;96609.47;;;4.94;75.22
4012;BME280;2020;48.682;9.024;2023-03-16T09:10:11;96598.66;;;5.23;74.68
4012;BME280;2020;48.682;9.024;2023-03-16T09:12:40;96601.81;;;5.50;76.44
4012;BME280;2020;48.682;9.024;2023-03-16T09:15:06;96599.72;;;5.76;78.79
4012;BME280;2020;48.682;9.024;2023-03-16T09:17:31;96587.56;;;5.55;73.69
4012;BME280;2020;48.682;9.024;2023-03-16T09:19:57;96584.22;;;5.44;73.93
4012;BME280;2020;48.682;9.024;2023-03-16T09:22:22;96588.34;;;5.23;71.89
4012;BME280;2020;48.682;9.024;2023-03-16T09:24:48;96592.25;;;5.62;76.94
4012;BME280;2020;48.682;9.024;2023-03-16T09:27:14;96588.41;;;5.89;72.85
4012;BME280;2020;48.682;9.024;2023-03-16T09:29:40;96586.28;;;5.94;73.61
4012;BME280;2020;48.682;9.024;2023-03-16T09:32:07;96596.34;;;6.20;73.28
4012;BME280;2020;48.682;9.024;2023-03-16T09:34:32;96595.00;;;6.25;74.63
4012;BME280;2020;48.682;9.024;2023-03-16T09:36:58;96584.84;;;6.55;79.16
4012;BME280;2020;48.682;9.024;2023-03-16T09:39:24;96595.63;;;6.60;78.61
4012;BME280;2020;48.682;9.024;2023-03-16T09:44:38;96578.81;;;6.44;72.91
4012;BME280;2020;48.682;9.024;2023-03-16T09:47:08;96571.59;;;6.48;68.71
4012;BME280;2020;48.682;9.024;2023-03-16T09:49:40;96565.69;;;6.36;68.57
4012;BME280;2020;48.682;9.024;2023-03-16T09:57:31;96552.38;;;6.41;69.58
4012;BME280;2020;48.682;9.024;2023-03-16T10:00:14;96561.91;;;6.40;68.03
4012;BME280;2020;48.682;9.024;2023-03-16T10:05:14;96561.91;;;6.40;64.77
4012;BME280;2020;48.682;9.024;2023-03-16T10:08:14;96560.44;;;6.69;67.93
4012;BME280;2020;48.682;9.024;2023-03-16T10:19:35;96574.91;;;7.53;61.60
4012;BME280;2020;48.682;9.024;2023-03-16T10:22:16;96564.25;;;7.46;62.71
4012;BME280;2020;48.682;9.024;2023-03-16T10:27:33;96542.72;;;7.75;63.03
4012;BME280;2020;48.682;9.024;2023-03-16T10:30:02;96549.84;;;7.83;61.66
4012;BME280;2020;48.682;9.024;2023-03-16T10:32:32;96550.91;;;8.10;63.61
4012;BME280;2020;48.682;9.024;2023-03-16T10:35:04;96548.44;;;8.18;61.38
4012;BME280;2020;48.682;9.024;2023-03-16T10:37:31;96556.09;;;8.20;59.41
4012;BME280;2020;48.682;9.024;2023-03-16T10:39:57;96545.97;;;8.27;62.14
4012;BME280;2020;48.682;9.024;2023-03-16T10:42:24;96539.81;;;8.57;59.23
4012;BME280;2020;48.682;9.024;2023-03-16T10:44:57;96534.56;;;8.00;59.38
4012;BME280;2020;48.682;9.024;2023-03-16T10:47:28;96534.50;;;8.39;56.88
4012;BME280;2020;48.682;9.024;2023-03-16T10:49:54;96522.19;;;8.41;57.65
4012;BME280;2020;48.682;9.024;2023-03-16T10:52:44;96516.75;;;8.44;55.73
4012;BME280;2020;48.682;9.024;2023-03-16T10:55:16;96515.94;;;8.34;58.13
4012;BME280;2020;48.682;9.024;2023-03-16T10:57:50;96525.25;;;8.27;57.76
4012;BME280;2020;48.682;9.024;2023-03-16T11:00:27;96518.13;;;8.39;55.30
4012;BME280;2020;48.682;9.024;2023-03-16T11:02:54;96514.81;;;8.66;58.29
4012;BME280;2020;48.682;9.024;2023-03-16T11:05:46;96524.38;;;8.56;53.47
4012;BME280;2020;48.682;9.024;2023-03-16T11:08:19;96515.78;;;8.93;54.53
4012;BME280;2020;48.682;9.024;2023-03-16T11:10:55;96516.09;;;8.90;56.23
4012;BME280;2020;48.682;9.024;2023-03-16T11:13:24;96518.38;;;8.65;57.29
4012;BME280;2020;48.682;9.024;2023-03-16T11:16:02;96507.63;;;8.88;55.07
4012;BME280;2020;48.682;9.024;2023-03-16T11:18:44;96505.31;;;9.13;55.85
4012;BME280;2020;48.682;9.024;2023-03-16T11:21:16;96502.50;;;9.24;54.28
4012;BME280;2020;48.682;9.024;2023-03-16T11:23:50;96501.56;;;8.97;53.31
4012;BME280;2020;48.682;9.024;2023-03-16T11:26:43;96498.66;;;9.28;53.64
4012;BME280;2020;48.682;9.024;2023-03-16T11:29:21;96508.63;;;9.51;54.10
4012;BME280;2020;48.682;9.024;2023-03-16T11:32:05;96505.19;;;9.32;53.29
4012;BME280;2020;48.682;9.024;2023-03-16T11:34:35;96503.50;;;9.59;57.17
4012;BME280;2020;48.682;9.024;2023-03-16T11:39:50;96497.47;;;9.77;52.46
4012;BME280;2020;48.682;9.024;2023-03-16T11:42:36;96491.53;;;9.66;53.56
4012;BME280;2020;48.682;9.024;2023-03-16T11:45:27;96490.94;;;9.73;52.33
4012;BME280;2020;48.682;9.024;2023-03-16T11:48:08;96482.00;;;10.12;56.68
4012;BME280;2020;48.682;9.024;2023-03-16T11:56:27;96483.44;;;9.88;51.57
4012;BME280;2020;48.682;9.024;2023-03-16T12:07:36;96459.31;;;9.95;48.92
4012;BME280;2020;48.682;9.024;2023-03-16T12:10:12;96449.78;;;9.86;49.61
4012;BME280;2020;48.682;9.024;2023-03-16T12:15:21;96443.91;;;10.02;49.97
4012;BME280;2020;48.682;9.024;2023-03-16T12:17:49;96449.13;;;10.29;46.87
4012;BME280;2020;48.682;9.024;2023-03-16T12:20:21;96449.81;;;10.13;46.91
4012;BME280;2020;48.682;9.024;2023-03-16T12:22:52;96453.66;;;9.82;46.57
4012;BME280;2020;48.682;9.024;2023-03-16T12:25:22;96445.66;;;9.75;48.00
4012;BME280;2020;48.682;9.024;2023-03-16T12:27:52;96450.44;;;9.62;48.83
4012;BME280;2020;48.682;9.024;2023-03-16T12:30:26;96448.38;;;9.47;47.08
4012;BME280;2020;48.682;9.024;2023-03-16T12:33:25;96447.13;;;9.78;46.79
4012;BME280;2020;48.682;9.024;2023-03-16T12:38:46;96447.09;;;10.14;44.15
4012;BME280;2020;48.682;9.024;2023-03-16T12:41:22;96445.03;;;10.00;46.44
4012;BME280;2020;48.682;9.024;2023-03-16T12:44:12;96438.66;;;10.20;47.75
4012;BME280;2020;48.682;9.024;2023-03-16T12:46:59;96431.25;;;10.34;45.76
4012;BME280;2020;48.682;9.024;2023-03-16T12:49:31;96428.91;;;10.92;46.81
4012;BME280;2020;48.682;9.024;2023-03-16T12:52:05;96420.47;;;11.06;46.54
4012;BME280;2020;48.682;9.024;2023-03-16T12:54:31;96409.16;;;11.49;46.54
4012;BME280;2020;48.682;9.024;2023-03-16T12:57:05;96404.28;;;11.62;45.48
4012;BME280;2020;48.682;9.024;2023-03-16T12:59:40;96402.00;;;11.51;44.65
4012;BME280;2020;48.682;9.024;2023-03-16T13:02:15;96408.00;;;11.35;44.54
4012;BME280;2020;48.682;9.024;2023-03-16T13:04:43;96404.56;;;11.26;43.84
4012;BME280;2020;48.682;9.024;2023-03-16T13:07:16;96406.56;;;11.40;45.59
4012;BME280;2020;48.682;9.024;2023-03-16T13:09:46;96409.16;;;11.32;43.79
4012;BME280;2020;48.682;9.024;2023-03-16T13:12:28;96412.75;;;11.31;44.29
4012;BME280;2020;48.682;9.024;2023-03-16T13:14:56;96412.09;;;11.37;43.40
4012;BME280;2020;48.682;9.024;2023-03-16T13:17:32;96414.81;;;11.19;42.77
4012;BME280;2020;48.682;9.024;2023-03-16T13:22:51;96412.75;;;11.48;45.06
4012;BME280;2020;48.682;9.024;2023-03-16T13:27:58;96409.16;;;11.32;42.13
4012;BME280;2020;48.682;9.024;2023-03-16T13:30:32;96406.72;;;11.47;40.86
4012;BME280;2020;48.682;9.024;2023-03-16T13:33:32;96396.47;;;11.46;44.50
4012;BME280;2020;48.682;9.024;2023-03-16T13:36:02;96391.53;;;11.84;40.28
4012;BME280;2020;48.682;9.024;2023-03-16T13:38:28;96393.47;;;11.98;39.06
4012;BME280;2020;48.682;9.024;2023-03-16T13:40:56;96389.53;;;12.19;39.40
4012;BME280;2020;48.682;9.024;2023-03-16T13:43:26;96381.44;;;11.81;40.30
4012;BME280;2020;48.682;9.024;2023-03-16T13:45:55;96392.22;;;11.45;41.10
4012;BME280;2020;48.682;9.024;2023-03-16T13:48:21;96384.22;;;12.04;41.40
4012;BME280;2020;48.682;9.024;2023-03-16T13:50:56;96378.03;;;12.45;40.70
4012;BME280;2020;48.682;9.024;2023-03-16T13:53:29;96380.00;;;12.43;43.00
4012;BME280;2020;48.682;9.024;2023-03-16T13:55:56;96372.13;;;12.51;40.45
4012;BME280;2020;48.682;9.024;2023-03-16T13:58:29;96373.03;;;12.75;41.16
4012;BME280;2020;48.682;9.024;2023-03-16T14:00:58;96380.22;;;12.73;39.60
4012;BME280;2020;48.682;9.024;2023-03-16T14:03:31;96377.31;;;12.68;38.41
4012;BME280;2020;48.682;9.024;2023-03-16T14:05:58;96362.34;;;12.62;43.03
4012;BME280;2020;48.682;9.024;2023-03-16T14:08:23;96361.81;;;12.98;39.80
4012;BME280;2020;48.682;9.024;2023-03-16T14:10:52;96365.41;;;12.97;38.07
4012;BME280;2020;48.682;9.024;2023-03-16T14:16:16;96351.81;;;13.01;39.35
4012;BME280;2020;48.682;9.024;2023-03-16T14:18:43;96348.53;;;12.76;38.19
4012;BME280;2020;48.682;9.024;2023-03-16T14:21:15;96345.22;;;12.51;38.45
4012;BME280;2020;48.682;9.024;2023-03-16T14:23:44;96344.09;;;12.13;38.54
4012;BME280;2020;48.682;9.024;2023-03-16T14:26:15;96333.44;;;12.23;38.55
4012;BME280;2020;48.682;9.024;2023-03-16T14:28:56;96327.94;;;12.10;38.82
4012;BME280;2020;48.682;9.024;2023-03-16T14:31:30;96326.94;;;12.19;37.62
4012;BME280;2020;48.682;9.024;2023-03-16T14:34:01;96320.69;;;12.28;37.12